createdAt,value
2018-12-30T00:00:28.237Z,84.93
2018-12-30T00:02:57.575Z,84.68
2018-12-30T00:05:28.930Z,84.74
2018-12-30T00:08:05.191Z,85.54
2018-12-30T00:10:34.553Z,85.83
2018-12-30T00:13:05.014Z,85.74
2018-12-30T00:15:34.632Z,85.91
2018-12-30T00:18:06.306Z,86.06
2018-12-30T00:20:36.099Z,86.09
2018-12-30T00:23:12.573Z,86.11
2018-12-30T00:25:42.426Z,85.62
2018-12-30T00:28:14.923Z,85.74
2018-12-30T00:30:44.278Z,85.71
2018-12-30T00:33:13.729Z,85.60
2018-12-30T00:35:43.065Z,85.82
2018-12-30T00:38:12.430Z,86.18
2018-12-30T00:40:41.821Z,85.98
2018-12-30T00:43:21.696Z,85.68
2018-12-30T00:45:42.213Z,85.42
2018-12-30T00:48:16.785Z,85.73
2018-12-30T00:50:43.003Z,86.04
2018-12-30T00:53:12.586Z,85.94
2018-12-30T00:55:42.540Z,85.32
2018-12-30T00:58:11.871Z,85.47
2018-12-30T01:00:41.230Z,85.66
2018-12-30T01:03:21.229Z,85.55
2018-12-30T01:05:41.886Z,85.37
2018-12-30T01:08:11.316Z,85.55
2018-12-30T01:10:42.449Z,85.79
2018-12-30T01:13:12.811Z,85.89
2018-12-30T01:15:42.769Z,85.88
2018-12-30T01:18:12.309Z,85.48
2018-12-30T01:20:48.126Z,85.63
2018-12-30T01:23:19.015Z,85.38
2018-12-30T01:25:48.475Z,85.17
2018-12-30T01:28:17.835Z,84.55
2018-12-30T01:30:47.463Z,84.45
2018-12-30T01:33:16.806Z,84.51
2018-12-30T01:35:46.165Z,84.32
2018-12-30T01:38:15.501Z,84.58
2018-12-30T01:40:44.819Z,84.34
2018-12-30T01:43:14.179Z,84.17
2018-12-30T01:45:43.788Z,84.26
2018-12-30T01:48:13.077Z,84.11
2018-12-30T01:50:42.414Z,84.43
2018-12-30T01:53:11.741Z,84.37
2018-12-30T01:55:41.329Z,84.16
2018-12-30T01:58:10.725Z,83.61
2018-12-30T02:00:40.059Z,83.75
2018-12-30T02:03:09.462Z,83.21
2018-12-30T02:05:43.136Z,83.74
2018-12-30T02:08:14.670Z,83.54
2018-12-30T02:10:44.490Z,83.74
2018-12-30T02:13:14.017Z,82.80
2018-12-30T02:15:43.902Z,82.33
2018-12-30T02:18:13.230Z,82.50
2018-12-30T02:20:42.615Z,82.82
2018-12-30T02:23:12.773Z,82.67
2018-12-30T02:25:42.118Z,82.24
2018-12-30T02:28:11.763Z,82.39
2018-12-30T02:30:41.384Z,82.16
2018-12-30T02:33:10.731Z,82.13
2018-12-30T02:35:40.088Z,81.89
2018-12-30T02:38:09.413Z,82.25
2018-12-30T02:40:38.746Z,82.32
2018-12-30T02:43:08.150Z,82.20
2018-12-30T02:45:43.499Z,82.76
2018-12-30T02:48:12.860Z,82.57
2018-12-30T02:50:42.835Z,82.15
2018-12-30T02:53:18.171Z,82.83
2018-12-30T02:55:47.940Z,82.90
2018-12-30T02:58:17.548Z,82.73
2018-12-30T03:00:47.067Z,83.07
2018-12-30T03:03:19.210Z,82.97
2018-12-30T03:05:48.592Z,82.76
2018-12-30T03:08:18.000Z,82.57
2018-12-30T03:10:47.320Z,82.76
2018-12-30T03:13:17.135Z,82.39
2018-12-30T03:15:46.512Z,81.88
2018-12-30T03:18:19.803Z,81.67
2018-12-30T03:20:50.166Z,81.97
2018-12-30T03:23:19.841Z,81.70
2018-12-30T03:25:49.297Z,81.97
2018-12-30T03:28:18.939Z,81.57
2018-12-30T03:30:48.620Z,81.68
2018-12-30T03:33:24.169Z,81.32
2018-12-30T03:35:54.788Z,81.01
2018-12-30T03:38:28.286Z,81.43
2018-12-30T03:41:04.694Z,81.58
2018-12-30T03:43:34.167Z,81.02
2018-12-30T03:46:04.266Z,81.23
2018-12-30T03:48:34.196Z,81.00
2018-12-30T03:51:03.938Z,81.40
2018-12-30T03:53:33.284Z,81.33
2018-12-30T03:56:03.622Z,81.32
2018-12-30T03:58:32.996Z,81.13
2018-12-30T04:01:03.297Z,80.64
2018-12-30T04:03:32.900Z,80.82
2018-12-30T04:06:04.421Z,80.88
2018-12-30T04:08:37.354Z,80.94
2018-12-30T04:11:07.098Z,80.93
2018-12-30T04:13:36.911Z,80.72
2018-12-30T04:16:06.519Z,80.66
2018-12-30T04:18:36.175Z,80.49
2018-12-30T04:21:05.962Z,80.67
2018-12-30T04:23:35.551Z,80.50
2018-12-30T04:26:07.432Z,80.55
2018-12-30T04:28:37.590Z,80.20
2018-12-30T04:31:07.349Z,80.01
2018-12-30T04:33:36.954Z,80.70
2018-12-30T04:36:06.518Z,80.21
2018-12-30T04:38:36.186Z,79.82
2018-12-30T04:41:05.820Z,80.05
2018-12-30T04:43:35.850Z,80.64
2018-12-30T04:46:06.298Z,80.55
2018-12-30T04:48:42.020Z,79.92
2018-12-30T04:51:07.399Z,79.87
2018-12-30T04:53:38.322Z,80.00
2018-12-30T04:56:08.110Z,79.95
2018-12-30T04:58:40.987Z,80.05
2018-12-30T05:01:10.544Z,79.78
2018-12-30T05:03:40.043Z,80.08
2018-12-30T05:06:09.720Z,80.21
2018-12-30T05:08:45.883Z,80.14
2018-12-30T05:11:15.491Z,79.73
2018-12-30T05:13:48.164Z,79.44
2018-12-30T05:16:18.275Z,79.59
2018-12-30T05:18:51.086Z,79.39
2018-12-30T05:21:20.884Z,79.64
2018-12-30T05:23:50.492Z,79.48
2018-12-30T05:26:20.434Z,79.29
2018-12-30T05:28:52.876Z,79.74
2018-12-30T05:31:22.860Z,79.90
2018-12-30T05:33:52.396Z,79.60
2018-12-30T05:36:25.085Z,79.82
2018-12-30T05:38:54.915Z,80.07
2018-12-30T05:41:24.682Z,80.12
2018-12-30T05:43:54.470Z,79.63
2018-12-30T05:46:24.046Z,79.91
2018-12-30T05:48:54.007Z,79.57
2018-12-30T05:51:23.720Z,79.16
2018-12-30T05:53:55.182Z,79.23
2018-12-30T05:56:24.916Z,79.22
2018-12-30T05:58:54.793Z,79.32
2018-12-30T06:01:24.745Z,79.28
2018-12-30T06:03:54.500Z,79.33
2018-12-30T06:06:31.744Z,78.38
2018-12-30T06:09:01.444Z,78.99
2018-12-30T06:11:34.038Z,78.89
2018-12-30T06:14:04.422Z,78.89
2018-12-30T06:16:36.969Z,78.78
2018-12-30T06:19:06.926Z,78.69
2018-12-30T06:21:36.599Z,78.49
2018-12-30T06:24:09.130Z,78.79
2018-12-30T06:26:38.912Z,78.74
2018-12-30T06:29:08.980Z,78.68
2018-12-30T06:31:38.736Z,78.76
2018-12-30T06:34:15.549Z,78.80
2018-12-30T06:36:45.487Z,78.93
2018-12-30T06:39:15.164Z,78.74
2018-12-30T06:41:48.201Z,78.85
2018-12-30T06:44:17.792Z,78.95
2018-12-30T06:46:47.543Z,78.71
2018-12-30T06:49:17.717Z,78.63
2018-12-30T06:51:47.437Z,78.63
2018-12-30T06:54:20.209Z,78.16
2018-12-30T06:56:49.744Z,77.95
2018-12-30T06:59:22.548Z,77.79
2018-12-30T07:01:52.022Z,77.58
2018-12-30T07:04:21.754Z,77.64
2018-12-30T07:06:51.527Z,77.58
2018-12-30T07:09:24.315Z,77.66
2018-12-30T07:11:54.022Z,77.26
2018-12-30T07:14:23.904Z,77.03
2018-12-30T07:16:53.762Z,76.79
2018-12-30T07:19:23.338Z,77.28
2018-12-30T07:21:53.077Z,77.29
2018-12-30T07:24:23.331Z,77.13
2018-12-30T07:26:55.878Z,76.47
2018-12-30T07:29:25.448Z,76.85
2018-12-30T07:31:57.923Z,76.79
2018-12-30T07:34:27.540Z,76.37
2018-12-30T07:36:57.225Z,76.41
2018-12-30T07:39:27.115Z,76.55
2018-12-30T07:41:56.721Z,76.79
2018-12-30T07:44:26.544Z,76.90
2018-12-30T07:46:56.529Z,77.33
2018-12-30T07:49:29.398Z,77.43
2018-12-30T07:51:58.966Z,77.49
2018-12-30T07:54:28.633Z,77.66
2018-12-30T07:56:58.322Z,77.60
2018-12-30T07:59:27.900Z,77.79
2018-12-30T08:01:57.529Z,77.96
2018-12-30T08:04:27.463Z,77.77
2018-12-30T08:06:57.047Z,78.50
2018-12-30T08:09:26.816Z,78.47
2018-12-30T08:11:56.488Z,78.47
2018-12-30T08:14:30.877Z,78.47
2018-12-30T08:17:00.627Z,78.49
2018-12-30T08:19:30.520Z,78.15
2018-12-30T08:22:00.245Z,78.12
2018-12-30T08:24:29.855Z,77.87
2018-12-30T08:26:59.492Z,78.22
2018-12-30T08:29:29.209Z,77.94
2018-12-30T08:32:02.823Z,78.06
2018-12-30T08:34:32.324Z,77.82
2018-12-30T08:37:01.979Z,77.80
2018-12-30T08:39:40.995Z,77.77
2018-12-30T08:42:10.763Z,77.96
2018-12-30T08:44:40.824Z,77.47
2018-12-30T08:47:10.449Z,77.56
2018-12-30T08:49:43.255Z,77.72
2018-12-30T08:52:12.864Z,77.79
2018-12-30T08:54:42.632Z,77.47
2018-12-30T08:57:12.007Z,76.92
2018-12-30T08:59:41.828Z,77.21
2018-12-30T09:02:17.747Z,76.79
2018-12-30T09:04:47.559Z,76.60
2018-12-30T09:07:17.305Z,76.33
2018-12-30T09:09:47.207Z,76.00
2018-12-30T09:12:16.950Z,75.54
2018-12-30T09:14:46.978Z,75.00
2018-12-30T09:17:18.314Z,75.27
2018-12-30T09:19:47.965Z,74.37
2018-12-30T09:22:17.607Z,74.59
2018-12-30T09:24:47.317Z,74.18
2018-12-30T09:27:24.652Z,74.53
2018-12-30T09:29:54.346Z,74.50
2018-12-30T09:32:24.043Z,74.70
2018-12-30T09:34:54.191Z,74.61
2018-12-30T09:37:23.962Z,74.95
2018-12-30T09:39:53.507Z,74.81
2018-12-30T09:42:23.340Z,74.92
2018-12-30T09:44:58.920Z,74.70
2018-12-30T09:47:24.172Z,74.77
2018-12-30T09:49:53.657Z,74.24
2018-12-30T09:52:23.569Z,74.49
2018-12-30T09:54:59.186Z,74.66
2018-12-30T09:57:28.928Z,74.75
2018-12-30T10:00:02.345Z,74.63
2018-12-30T10:02:31.957Z,74.75
2018-12-30T10:05:04.942Z,74.74
2018-12-30T10:07:34.891Z,74.54
2018-12-30T10:10:07.134Z,74.39
2018-12-30T10:12:36.723Z,74.19
2018-12-30T10:15:09.975Z,74.20
2018-12-30T10:17:44.371Z,74.23
2018-12-30T10:20:09.797Z,74.78
2018-12-30T10:22:39.422Z,74.76
2018-12-30T10:25:09.343Z,75.22
2018-12-30T10:27:38.932Z,74.93
2018-12-30T10:30:09.701Z,75.02
2018-12-30T10:32:45.965Z,74.82
2018-12-30T10:35:25.957Z,74.93
2018-12-30T10:37:55.838Z,74.55
2018-12-30T10:40:25.543Z,74.48
2018-12-30T10:42:55.575Z,74.26
2018-12-30T10:45:25.238Z,74.22
2018-12-30T10:47:57.688Z,74.22
2018-12-30T10:50:27.447Z,73.31
2018-12-30T10:52:57.087Z,73.52
2018-12-30T10:55:27.258Z,74.47
2018-12-30T10:57:59.884Z,74.04
2018-12-30T11:00:33.409Z,74.29
2018-12-30T11:03:13.719Z,74.17
2018-12-30T11:05:35.168Z,74.17
2018-12-30T11:08:13.651Z,74.37
2018-12-30T11:10:43.380Z,74.23
2018-12-30T11:13:13.117Z,73.80
2018-12-30T11:15:42.858Z,73.34
2018-12-30T11:18:12.999Z,73.45
2018-12-30T11:20:45.837Z,73.18
2018-12-30T11:23:15.692Z,73.34
2018-12-30T11:25:45.606Z,73.27
2018-12-30T11:28:15.228Z,73.57
2018-12-30T11:30:44.917Z,73.54
2018-12-30T11:33:14.443Z,73.66
2018-12-30T11:35:44.452Z,73.50
2018-12-30T11:38:14.343Z,73.79
2018-12-30T11:40:44.103Z,73.83
2018-12-30T11:43:13.696Z,74.00
2018-12-30T11:45:46.694Z,73.82
2018-12-30T11:48:16.721Z,73.64
2018-12-30T11:50:46.559Z,73.59
2018-12-30T11:53:16.114Z,73.00
2018-12-30T11:55:46.125Z,73.33
2018-12-30T11:58:21.526Z,73.23
2018-12-30T12:00:51.309Z,73.00
2018-12-30T12:03:21.068Z,72.44
2018-12-30T12:05:51.740Z,72.35
2018-12-30T12:08:21.361Z,72.69
2018-12-30T12:10:51.466Z,72.75
2018-12-30T12:13:21.313Z,72.22
2018-12-30T12:15:51.466Z,72.78
2018-12-30T12:18:21.114Z,72.69
2018-12-30T12:20:51.163Z,73.00
2018-12-30T12:23:20.980Z,73.20
2018-12-30T12:25:50.880Z,72.51
2018-12-30T12:28:22.786Z,73.11
2018-12-30T12:30:55.081Z,72.98
2018-12-30T12:33:24.695Z,73.46
2018-12-30T12:35:54.906Z,72.90
2018-12-30T12:38:31.137Z,72.46
2018-12-30T12:41:01.115Z,72.43
2018-12-30T12:43:31.632Z,72.71
2018-12-30T12:46:03.325Z,73.18
2018-12-30T12:48:32.976Z,73.19
2018-12-30T12:51:02.868Z,73.09
2018-12-30T12:53:32.664Z,72.95
2018-12-30T12:56:04.048Z,73.39
2018-12-30T12:58:40.401Z,73.56
2018-12-30T13:01:10.515Z,73.72
2018-12-30T13:03:40.504Z,74.40
2018-12-30T13:06:10.307Z,74.35
2018-12-30T13:08:40.168Z,74.06
2018-12-30T13:11:10.388Z,74.62
2018-12-30T13:13:40.054Z,74.42
2018-12-30T13:16:16.397Z,74.69
2018-12-30T13:18:49.014Z,74.38
2018-12-30T13:21:18.804Z,74.02
2018-12-30T13:23:48.637Z,73.83
2018-12-30T13:26:18.643Z,73.75
2018-12-30T13:28:51.376Z,73.87
2018-12-30T13:31:21.413Z,73.53
2018-12-30T13:33:51.208Z,73.72
2018-12-30T13:36:25.298Z,73.59
2018-12-30T13:38:57.720Z,73.25
2018-12-30T13:41:27.547Z,73.24
2018-12-30T13:43:58.052Z,73.00
2018-12-30T13:46:27.729Z,72.69
2018-12-30T13:48:57.307Z,72.88
2018-12-30T13:51:26.963Z,72.73
2018-12-30T13:53:57.435Z,72.25
2018-12-30T13:56:26.949Z,72.42
2018-12-30T13:58:57.479Z,72.92
2018-12-30T14:01:27.368Z,73.48
2018-12-30T14:03:56.984Z,73.59
2018-12-30T14:06:26.842Z,73.53
2018-12-30T14:08:56.437Z,73.88
2018-12-30T14:11:26.228Z,73.53
2018-12-30T14:13:56.473Z,73.42
2018-12-30T14:16:26.128Z,73.29
2018-12-30T14:18:55.651Z,73.46
2018-12-30T14:21:25.847Z,73.37
2018-12-30T14:23:56.075Z,73.12
2018-12-30T14:26:25.800Z,72.66
2018-12-30T14:28:59.606Z,72.96
2018-12-30T14:31:29.162Z,72.87
2018-12-30T14:33:58.897Z,72.01
2018-12-30T14:36:28.942Z,71.88
2018-12-30T14:39:06.022Z,72.34
2018-12-30T14:41:35.590Z,72.46
2018-12-30T14:44:05.937Z,72.09
2018-12-30T14:46:41.866Z,72.15
2018-12-30T14:49:11.373Z,72.60
2018-12-30T14:51:41.631Z,72.51
2018-12-30T14:54:20.193Z,72.63
2018-12-30T14:56:51.203Z,72.65
2018-12-30T14:59:21.542Z,72.64
2018-12-30T15:01:51.112Z,72.51
2018-12-30T15:04:26.343Z,72.52
2018-12-30T15:06:56.316Z,72.86
2018-12-30T15:09:26.314Z,73.13
2018-12-30T15:11:56.176Z,73.14
2018-12-30T15:14:25.558Z,72.98
2018-12-30T15:16:55.225Z,72.89
2018-12-30T15:19:31.978Z,72.69
2018-12-30T15:22:03.635Z,72.87
2018-12-30T15:24:36.974Z,72.73
2018-12-30T15:27:11.307Z,72.95
2018-12-30T15:29:38.319Z,73.06
2018-12-30T15:32:15.409Z,73.15
2018-12-30T15:34:45.131Z,73.11
2018-12-30T15:37:15.426Z,73.18
2018-12-30T15:39:45.144Z,72.99
2018-12-30T15:42:18.853Z,73.16
2018-12-30T15:44:48.430Z,73.39
2018-12-30T15:47:17.910Z,73.69
2018-12-30T15:49:48.161Z,73.61
2018-12-30T15:52:23.730Z,73.67
2018-12-30T15:54:54.683Z,73.83
2018-12-30T15:57:27.900Z,73.67
2018-12-30T15:59:57.719Z,73.73
2018-12-30T16:02:30.410Z,73.33
2018-12-30T16:05:00.245Z,72.92
2018-12-30T16:07:30.286Z,73.44
2018-12-30T16:09:59.992Z,73.12
2018-12-30T16:12:29.573Z,73.56
2018-12-30T16:15:02.356Z,73.93
2018-12-30T16:17:35.889Z,74.23
2018-12-30T16:20:09.672Z,74.63
2018-12-30T16:22:39.685Z,74.18
2018-12-30T16:25:09.342Z,73.85
2018-12-30T16:27:42.796Z,74.79
2018-12-30T16:30:12.772Z,74.88
2018-12-30T16:32:42.427Z,75.04
2018-12-30T16:35:18.774Z,74.76
2018-12-30T16:37:49.503Z,74.87
2018-12-30T16:40:22.573Z,74.72
2018-12-30T16:42:52.234Z,75.35
2018-12-30T16:45:21.818Z,76.43
2018-12-30T16:47:53.388Z,75.85
2018-12-30T16:50:30.673Z,75.93
2018-12-30T16:53:00.629Z,75.65
2018-12-30T16:55:34.926Z,76.27
2018-12-30T16:58:15.853Z,76.11
2018-12-30T17:00:48.717Z,76.12
2018-12-30T17:03:21.909Z,76.23
2018-12-30T17:05:51.567Z,76.72
2018-12-30T17:08:27.552Z,76.70
2018-12-30T17:10:57.470Z,76.65
2018-12-30T17:13:27.114Z,77.27
2018-12-30T17:15:57.607Z,77.81
2018-12-30T17:18:33.881Z,77.65
2018-12-30T17:21:03.760Z,77.78
2018-12-30T17:23:36.758Z,77.98
2018-12-30T17:26:09.423Z,78.05
2018-12-30T17:28:39.417Z,78.24
2018-12-30T17:31:09.017Z,78.54
2018-12-30T17:33:38.734Z,78.80
2018-12-30T17:36:08.362Z,78.26
2018-12-30T17:38:41.314Z,77.84
2018-12-30T17:41:11.014Z,78.20
2018-12-30T17:43:40.750Z,78.59
2018-12-30T17:46:18.005Z,78.06
2018-12-30T17:48:42.370Z,78.09
2018-12-30T17:51:12.201Z,78.62
2018-12-30T17:53:43.205Z,78.61
2018-12-30T17:56:13.381Z,78.31
2018-12-30T17:58:43.050Z,78.60
2018-12-30T18:01:13.092Z,79.07
2018-12-30T18:03:44.550Z,79.51
2018-12-30T18:06:16.812Z,78.71
2018-12-30T18:08:54.628Z,79.06
2018-12-30T18:11:24.320Z,79.47
2018-12-30T18:13:54.089Z,78.97
2018-12-30T18:16:24.203Z,79.01
2018-12-30T18:18:54.299Z,79.04
2018-12-30T18:21:23.982Z,79.10
2018-12-30T18:23:56.906Z,79.33
2018-12-30T18:26:27.046Z,79.31
2018-12-30T18:28:59.825Z,78.97
2018-12-30T18:31:29.934Z,78.75
2018-12-30T18:34:18.681Z,79.02
2018-12-30T18:36:48.716Z,79.33
2018-12-30T18:39:18.721Z,79.34
2018-12-30T18:41:55.142Z,79.02
2018-12-30T18:44:35.411Z,78.66
2018-12-30T18:47:05.651Z,78.71
2018-12-30T18:49:35.454Z,78.95
2018-12-30T18:52:06.542Z,79.14
2018-12-30T18:54:36.676Z,79.10
2018-12-30T18:57:07.164Z,78.53
2018-12-30T18:59:37.500Z,78.86
2018-12-30T19:02:07.654Z,79.22
2018-12-30T19:04:37.689Z,79.09
2018-12-30T19:07:10.299Z,79.62
2018-12-30T19:09:40.132Z,79.43
2018-12-30T19:12:10.044Z,79.12
2018-12-30T19:14:43.387Z,79.61
2018-12-30T19:17:13.432Z,79.21
2018-12-30T19:19:43.397Z,79.15
2018-12-30T19:22:13.336Z,78.92
2018-12-30T19:24:43.104Z,79.14
2018-12-30T19:27:15.989Z,78.84
2018-12-30T19:29:45.822Z,78.40
2018-12-30T19:32:16.456Z,78.43
2018-12-30T19:34:46.670Z,78.46
2018-12-30T19:37:22.983Z,78.09
2018-12-30T19:39:52.740Z,78.04
2018-12-30T19:42:22.711Z,77.94
2018-12-30T19:44:52.618Z,78.03
2018-12-30T19:47:22.718Z,77.99
2018-12-30T19:49:52.560Z,78.03
2018-12-30T19:52:25.415Z,77.85
2018-12-30T19:54:55.469Z,77.73
2018-12-30T19:57:25.271Z,77.48
2018-12-30T19:59:55.031Z,77.43
2018-12-30T20:02:27.731Z,77.49
2018-12-30T20:05:08.189Z,77.72
2018-12-30T20:07:38.073Z,77.61
2018-12-30T20:10:08.446Z,78.15
2018-12-30T20:12:39.316Z,77.95
2018-12-30T20:15:09.493Z,78.05
2018-12-30T20:17:45.640Z,78.25
2018-12-30T20:20:18.991Z,78.93
2018-12-30T20:22:49.223Z,78.97
2018-12-30T20:25:22.443Z,79.39
2018-12-30T20:27:52.190Z,79.53
2018-12-30T20:30:30.177Z,79.80
2018-12-30T20:33:00.008Z,79.66
2018-12-30T20:35:36.237Z,80.37
2018-12-30T20:38:07.469Z,80.59
2018-12-30T20:40:40.828Z,80.68
2018-12-30T20:43:12.448Z,81.22
2018-12-30T20:45:42.830Z,81.78
2018-12-30T20:48:13.222Z,81.55
2018-12-30T20:50:46.168Z,82.05
2018-12-30T20:53:16.149Z,82.50
2018-12-30T20:55:47.627Z,82.41
2018-12-30T20:58:17.788Z,82.43
2018-12-30T21:00:47.796Z,82.83
2018-12-30T21:03:17.653Z,83.83
2018-12-30T21:05:47.445Z,84.31
2018-12-30T21:08:17.286Z,84.62
2018-12-30T21:10:48.014Z,85.16
2018-12-30T21:13:18.117Z,85.34
2018-12-30T21:15:56.888Z,85.85
2018-12-30T21:18:28.936Z,85.83
2018-12-30T21:20:59.421Z,85.69
2018-12-30T21:23:33.830Z,86.31
2018-12-30T21:26:04.492Z,87.37
2018-12-30T21:28:35.055Z,87.99
2018-12-30T21:31:05.705Z,87.95
2018-12-30T21:33:37.401Z,88.07
2018-12-30T21:36:13.863Z,88.34
2018-12-30T21:38:43.650Z,88.52
2018-12-30T21:41:20.800Z,88.43
2018-12-30T21:43:52.044Z,88.30
2018-12-30T21:46:25.710Z,88.87
2018-12-30T21:49:01.231Z,89.55
2018-12-30T21:51:31.071Z,89.93
2018-12-30T21:54:01.051Z,90.25
2018-12-30T21:56:30.876Z,89.86
2018-12-30T21:59:00.889Z,89.76
2018-12-30T22:01:30.737Z,89.82
2018-12-30T22:04:00.720Z,89.66
2018-12-30T22:06:32.766Z,89.75
2018-12-30T22:09:02.565Z,90.13
2018-12-30T22:11:33.112Z,90.07
2018-12-30T22:14:10.131Z,89.88
2018-12-30T22:16:41.353Z,89.47
2018-12-30T22:19:16.155Z,89.35
2018-12-30T22:21:50.493Z,89.59
2018-12-30T22:24:20.646Z,89.76
2018-12-30T22:26:51.928Z,89.80
2018-12-30T22:29:21.861Z,89.98
2018-12-30T22:31:55.104Z,90.04
2018-12-30T22:34:26.690Z,90.61
2018-12-30T22:36:56.568Z,91.26
2018-12-30T22:39:27.712Z,91.32
2018-12-30T22:41:58.152Z,91.73
2018-12-30T22:44:37.344Z,91.43
2018-12-30T22:47:08.303Z,91.41
2018-12-30T22:49:44.566Z,91.36
2018-12-30T22:52:14.593Z,91.09
2018-12-30T22:54:45.583Z,91.53
2018-12-30T22:57:18.275Z,91.56
2018-12-30T22:59:48.104Z,91.50
2018-12-30T23:02:18.198Z,91.66
2018-12-30T23:07:22.277Z,92.88
2018-12-30T23:09:52.138Z,92.75
2018-12-30T23:12:24.870Z,93.00
2018-12-30T23:14:54.590Z,92.70
2018-12-30T23:17:33.493Z,92.28
2018-12-30T23:20:09.626Z,91.93
2018-12-30T23:22:39.171Z,91.77
2018-12-30T23:25:10.491Z,91.15
2018-12-30T23:27:40.551Z,91.83
2018-12-30T23:30:10.071Z,91.76
2018-12-30T23:32:39.799Z,92.01
2018-12-30T23:35:13.865Z,92.46
2018-12-30T23:37:43.440Z,92.99
2018-12-30T23:40:13.154Z,92.56
2018-12-30T23:42:46.089Z,92.97
2018-12-30T23:45:15.902Z,92.56
2018-12-30T23:47:45.549Z,92.30
2018-12-30T23:50:33.058Z,92.16
2018-12-30T23:53:02.676Z,92.03
2018-12-30T23:55:32.666Z,91.93
2018-12-30T23:58:03.443Z,92.14
